Terminal Aerodrome Forecast
Issued by NWS Louisville, KY

Home | Current Version | Previous Version | Text Only | Print | Product List | Glossary On
Versions: 1 2 3 4 5 6 7 8 9 10 11 12 13 14 15 16 17 18 19 20 21
000
FTUS43 KLMK 300500
TAFLEX
TAF
KLEX 300534Z 3006/3106 28004KT 6SM BR SCT025 SCT150
     FM301000 33004KT 3SM BR SCT025
     FM301300 34009KT P6SM FEW030
     FM310000 VRB03KT P6SM SKC=

USA.gov is the U.S. government's official web portal to all federal, state and local government web resources and services.